Time;durP1;ratioP1;P1;durP2;ratioP2;P2;SDS_P1;SDS_P2;PMS_P1;PMS_P2;Temp;Humidity;BMP_temperature;BMP_pressure;BME280_temperature;BME280_humidity;BME280_pressure;Samples;Min_cycle;Max_cycle;Signal;HPM_P1;HPM_P2
2021/08/02 00:03:04;;;;;;;2.80;2.60;;;15.70;99.90;;;;;;6245811;28;20584;-68
2021/08/02 00:06:09;;;;;;;2.87;2.67;;;15.70;99.90;;;;;;6246771;28;20206;-68
2021/08/02 00:09:34;;;;;;;2.63;2.43;;;15.70;99.90;;;;;;6245902;28;20237;-68
2021/08/02 00:12:41;;;;;;;2.90;2.60;;;15.70;99.90;;;;;;6246912;28;20655;-66
2021/08/02 00:15:47;;;;;;;2.60;2.40;;;15.60;99.90;;;;;;6245415;28;20251;-67
2021/08/02 00:18:49;;;;;;;3.50;2.63;;;15.60;99.90;;;;;;6246858;28;20278;-67
2021/08/02 00:21:52;;;;;;;2.87;2.67;;;15.60;99.90;;;;;;6245561;28;20242;-68
2021/08/02 00:24:55;;;;;;;3.10;2.90;;;15.70;99.90;;;;;;6245398;28;20184;-68
2021/08/02 00:27:57;;;;;;;2.60;2.40;;;15.60;99.90;;;;;;6261964;28;20204;-66
2021/08/02 00:31:02;;;;;;;2.40;2.20;;;15.70;99.90;;;;;;6245093;28;20196;-67
2021/08/02 00:34:05;;;;;;;3.87;2.57;;;15.70;99.90;;;;;;6245439;28;20668;-67
2021/08/02 00:37:17;;;;;;;3.00;2.43;;;15.70;99.90;;;;;;6244522;28;20234;-66
2021/08/02 00:40:47;;;;;;;2.47;2.27;;;15.60;99.90;;;;;;6246401;28;20184;-67
2021/08/02 00:44:07;;;;;;;2.57;2.37;;;15.60;99.90;;;;;;6261483;28;20212;-68
2021/08/02 00:47:17;;;;;;;1.83;1.73;;;15.60;99.90;;;;;;6246202;28;20228;-67
2021/08/02 00:50:22;;;;;;;2.00;1.90;;;15.70;99.90;;;;;;6261416;28;20192;-67
2021/08/02 00:53:28;;;;;;;2.47;2.20;;;15.60;99.90;;;;;;6261638;28;20210;-66
2021/08/02 00:56:33;;;;;;;2.30;2.07;;;15.60;99.90;;;;;;6244922;28;20230;-69
2021/08/02 00:59:39;;;;;;;1.70;1.60;;;15.60;99.90;;;;;;6246104;28;20207;-69
2021/08/02 01:02:47;;;;;;;1.87;1.53;;;15.60;99.90;;;;;;6260910;28;20286;-67
2021/08/02 01:05:54;;;;;;;1.67;1.53;;;15.60;99.90;;;;;;6261175;28;20801;-66
2021/08/02 01:09:04;;;;;;;2.03;1.40;;;15.60;99.90;;;;;;6244554;28;20188;-68
2021/08/02 01:12:10;;;;;;;2.00;1.43;;;15.60;99.90;;;;;;6245743;28;20266;-67
2021/08/02 01:15:15;;;;;;;1.40;1.30;;;15.50;99.90;;;;;;6245458;28;20224;-67
2021/08/02 01:18:22;;;;;;;1.40;1.30;;;15.50;99.90;;;;;;6242312;28;20238;-68
2021/08/02 01:21:26;;;;;;;1.70;1.60;;;15.50;99.90;;;;;;6245443;28;20192;-67
2021/08/02 01:24:35;;;;;;;1.10;0.90;;;15.50;99.90;;;;;;6260776;28;20199;-68
2021/08/02 01:27:46;;;;;;;1.30;1.20;;;15.50;99.90;;;;;;6245539;28;20271;-67
2021/08/02 01:30:59;;;;;;;2.20;2.00;;;15.40;99.90;;;;;;6245327;28;20184;-68
2021/08/02 01:34:07;;;;;;;2.03;1.70;;;15.40;99.90;;;;;;6245922;28;20200;-68
2021/08/02 01:37:11;;;;;;;4.30;1.37;;;15.40;99.90;;;;;;6243993;28;20224;-67
2021/08/02 01:40:15;;;;;;;1.97;1.33;;;15.40;99.90;;;;;;6244073;28;20667;-67
2021/08/02 01:43:19;;;;;;;3.37;1.40;;;15.40;99.90;;;;;;6245215;28;20204;-67
2021/08/02 01:46:44;;;;;;;4.27;1.60;;;15.30;99.90;;;;;;6245271;28;20203;-67
2021/08/02 01:50:04;;;;;;;1.93;1.43;;;15.30;99.90;;;;;;6265446;28;20959;-70
2021/08/02 01:53:29;;;;;;;1.53;1.43;;;15.30;99.90;;;;;;6249288;28;20287;-66
2021/08/02 01:56:52;;;;;;;2.10;1.40;;;15.30;99.90;;;;;;6250217;28;20184;-66
2021/08/02 02:00:01;;;;;;;3.30;1.60;;;15.20;99.90;;;;;;6265319;28;20199;-66
2021/08/02 02:03:20;;;;;;;1.57;1.47;;;15.20;99.90;;;;;;6249984;28;20278;-66
2021/08/02 02:06:40;;;;;;;2.90;2.07;;;15.10;99.90;;;;;;6248838;28;20193;-66
2021/08/02 02:09:43;;;;;;;3.07;1.87;;;15.20;99.90;;;;;;6265237;28;20197;-67
2021/08/02 02:12:50;;;;;;;1.80;1.70;;;15.10;99.90;;;;;;6249937;28;20765;-70
2021/08/02 02:15:55;;;;;;;3.23;1.60;;;15.10;99.90;;;;;;6248147;28;20230;-67
2021/08/02 02:19:03;;;;;;;2.43;1.80;;;15.10;99.90;;;;;;6249828;28;20745;-66
2021/08/02 02:22:09;;;;;;;1.67;1.57;;;15.10;99.90;;;;;;6264662;28;20582;-66
2021/08/02 02:25:13;;;;;;;2.37;1.40;;;15.10;99.90;;;;;;6249500;28;20184;-66
2021/08/02 02:28:17;;;;;;;1.60;1.50;;;15.10;99.90;;;;;;6247914;28;20192;-66
2021/08/02 02:31:21;;;;;;;1.60;1.50;;;15.10;99.90;;;;;;6249737;28;20195;-67
2021/08/02 02:34:24;;;;;;;2.40;1.90;;;15.10;99.90;;;;;;6249272;28;20226;-67
2021/08/02 02:37:27;;;;;;;1.90;1.80;;;15.10;99.90;;;;;;6247954;28;20207;-67
2021/08/02 02:40:34;;;;;;;3.67;1.83;;;15.10;99.90;;;;;;6247910;28;20200;-68
2021/08/02 02:43:38;;;;;;;2.27;1.97;;;15.10;99.90;;;;;;6248889;28;20680;-67
2021/08/02 02:46:42;;;;;;;3.23;2.03;;;15.10;99.90;;;;;;6247823;28;20283;-68
2021/08/02 02:49:47;;;;;;;1.80;1.70;;;15.10;99.90;;;;;;6248163;28;20250;-69
2021/08/02 02:52:50;;;;;;;1.63;1.53;;;15.00;99.90;;;;;;6264157;28;20211;-69
2021/08/02 02:55:57;;;;;;;4.43;1.90;;;15.00;99.90;;;;;;6247833;28;20277;-68
2021/08/02 02:59:00;;;;;;;1.77;1.67;;;15.10;99.90;;;;;;6246970;28;20200;-68
2021/08/02 03:02:03;;;;;;;2.07;1.90;;;15.10;99.90;;;;;;6247640;28;20283;-68
2021/08/02 03:05:10;;;;;;;2.23;1.70;;;15.10;99.90;;;;;;6248078;28;20195;-68
2021/08/02 03:08:15;;;;;;;1.83;1.63;;;15.10;99.90;;;;;;6247419;28;20196;-69
2021/08/02 03:11:20;;;;;;;1.80;1.70;;;15.10;99.90;;;;;;6247533;28;20291;-69
2021/08/02 03:14:23;;;;;;;2.00;1.70;;;15.10;99.90;;;;;;6248620;28;20322;-68
2021/08/02 03:17:26;;;;;;;1.93;1.83;;;15.10;99.90;;;;;;6248403;28;20200;-68
2021/08/02 03:20:28;;;;;;;3.00;2.00;;;15.10;99.90;;;;;;6248473;28;20564;-68
2021/08/02 03:23:48;;;;;;;2.00;1.80;;;15.10;99.90;;;;;;6263503;28;20237;-69
2021/08/02 03:26:54;;;;;;;4.37;2.20;;;15.20;99.90;;;;;;6248540;28;20184;-68
2021/08/02 03:30:03;;;;;;;2.07;1.90;;;15.10;99.90;;;;;;6247274;28;20278;-68
2021/08/02 03:33:15;;;;;;;3.70;2.10;;;15.10;99.90;;;;;;6246952;28;20199;-68
2021/08/02 03:36:20;;;;;;;2.33;2.13;;;15.10;99.90;;;;;;6246983;28;20726;-68
2021/08/02 03:39:25;;;;;;;2.53;2.33;;;15.10;99.90;;;;;;6247132;28;20222;-68
2021/08/02 03:42:29;;;;;;;3.80;2.13;;;15.10;99.90;;;;;;6246688;28;20211;-68
2021/08/02 03:45:32;;;;;;;2.63;2.30;;;15.10;99.90;;;;;;6247878;28;20222;-68
2021/08/02 03:48:36;;;;;;;2.13;1.93;;;15.10;99.90;;;;;;6246436;28;20203;-68
2021/08/02 03:52:00;;;;;;;1.97;1.87;;;15.10;99.90;;;;;;6246647;28;20204;-68
2021/08/02 03:55:06;;;;;;;1.90;1.80;;;15.10;99.90;;;;;;6246278;28;20214;-68
2021/08/02 03:58:09;;;;;;;1.90;1.80;;;15.20;99.90;;;;;;6246385;28;20196;-68
2021/08/02 04:01:12;;;;;;;1.90;1.80;;;15.20;99.90;;;;;;6246398;28;20200;-68
2021/08/02 04:04:15;;;;;;;1.80;1.63;;;15.20;99.90;;;;;;6246151;28;20276;-68
2021/08/02 04:07:17;;;;;;;1.60;1.50;;;15.20;99.90;;;;;;6246200;28;20275;-68
2021/08/02 04:10:20;;;;;;;2.10;1.20;;;15.20;99.90;;;;;;6247039;28;20219;-68
2021/08/02 04:13:22;;;;;;;1.80;1.40;;;15.20;99.90;;;;;;6245681;28;20265;-68
2021/08/02 04:16:25;;;;;;;1.40;1.30;;;15.20;99.90;;;;;;6246911;28;20200;-68
2021/08/02 04:19:28;;;;;;;1.50;1.40;;;15.20;99.90;;;;;;6247088;28;20192;-68
2021/08/02 04:22:30;;;;;;;1.37;1.27;;;15.20;99.90;;;;;;6237841;28;20595;-68
2021/08/02 04:25:32;;;;;;;3.10;1.57;;;15.20;99.90;;;;;;6227650;28;20195;-68
2021/08/02 04:28:35;;;;;;;1.53;1.37;;;15.20;99.90;;;;;;6246891;28;20208;-68
2021/08/02 04:31:37;;;;;;;1.07;1.03;;;15.20;99.90;;;;;;6245319;28;20291;-67
2021/08/02 04:34:39;;;;;;;1.40;1.30;;;15.20;99.90;;;;;;6262066;28;20228;-69
2021/08/02 04:37:42;;;;;;;1.27;1.13;;;15.20;99.90;;;;;;6244971;28;20218;-68
2021/08/02 04:40:44;;;;;;;1.50;1.40;;;15.20;99.90;;;;;;6246407;28;20188;-68
2021/08/02 04:43:47;;;;;;;2.33;1.30;;;15.20;99.90;;;;;;6245602;28;20728;-67
2021/08/02 04:46:49;;;;;;;2.40;1.50;;;15.30;99.90;;;;;;6245323;28;20237;-68
2021/08/02 04:49:51;;;;;;;1.80;1.70;;;15.30;99.90;;;;;;6246194;28;20214;-68
2021/08/02 04:52:54;;;;;;;2.20;1.57;;;15.30;99.90;;;;;;6245852;28;20678;-68
2021/08/02 04:55:56;;;;;;;1.53;1.43;;;15.40;99.90;;;;;;6261364;28;20665;-68
2021/08/02 04:58:59;;;;;;;1.77;1.67;;;15.30;99.90;;;;;;6246029;28;20745;-67
2021/08/02 05:02:01;;;;;;;2.00;1.50;;;15.40;99.90;;;;;;6245597;28;20196;-69
2021/08/02 05:05:04;;;;;;;1.33;1.23;;;15.40;99.90;;;;;;6245733;28;20687;-68
2021/08/02 05:08:06;;;;;;;1.57;1.43;;;15.40;99.90;;;;;;6244264;28;20204;-68
2021/08/02 05:11:08;;;;;;;1.50;1.40;;;15.40;99.90;;;;;;6244511;28;20246;-68
2021/08/02 05:14:11;;;;;;;2.17;1.67;;;15.50;99.90;;;;;;6244075;28;20375;-68
2021/08/02 05:17:14;;;;;;;1.93;1.70;;;15.50;99.90;;;;;;6260863;28;20200;-68
2021/08/02 05:20:19;;;;;;;2.60;1.40;;;15.60;99.90;;;;;;6245540;28;20568;-68
2021/08/02 05:23:21;;;;;;;1.77;1.30;;;15.80;99.90;;;;;;6243455;28;20206;-69
2021/08/02 05:26:23;;;;;;;1.60;1.50;;;15.90;99.90;;;;;;6244049;28;20203;-69
2021/08/02 05:29:26;;;;;;;1.63;1.33;;;16.00;99.90;;;;;;6244010;28;20832;-68
2021/08/02 05:32:28;;;;;;;1.40;1.30;;;16.10;99.90;;;;;;6243915;28;20660;-68
2021/08/02 05:35:30;;;;;;;1.30;1.20;;;16.30;99.90;;;;;;6244943;28;20220;-70
2021/08/02 05:38:33;;;;;;;1.33;1.23;;;16.30;99.90;;;;;;6245192;28;20204;-69
2021/08/02 05:41:35;;;;;;;1.60;1.43;;;16.40;99.90;;;;;;6243844;28;20287;-67
2021/08/02 05:44:38;;;;;;;1.40;1.30;;;16.40;99.90;;;;;;6244335;28;20567;-68
2021/08/02 05:47:40;;;;;;;3.33;1.43;;;16.40;99.90;;;;;;6243780;28;20188;-69
2021/08/02 05:50:42;;;;;;;2.97;1.40;;;16.40;99.90;;;;;;6243513;28;20330;-67
2021/08/02 05:53:45;;;;;;;1.23;1.13;;;16.50;99.90;;;;;;6243542;28;20533;-68
2021/08/02 05:56:47;;;;;;;1.27;1.17;;;16.50;99.90;;;;;;6244960;28;20606;-69
2021/08/02 05:59:50;;;;;;;2.87;1.40;;;16.50;99.90;;;;;;6244909;28;20216;-67
2021/08/02 06:02:52;;;;;;;2.30;1.23;;;16.50;99.90;;;;;;6243309;28;20706;-69
2021/08/02 06:05:55;;;;;;;1.37;1.27;;;16.50;99.90;;;;;;6244707;28;20274;-69
2021/08/02 06:08:57;;;;;;;1.97;1.30;;;16.50;99.90;;;;;;6260122;28;20195;-69
2021/08/02 06:12:01;;;;;;;1.57;1.30;;;16.50;99.90;;;;;;6244768;28;20730;-70
2021/08/02 06:15:04;;;;;;;2.30;1.13;;;16.50;99.90;;;;;;6243103;28;20317;-69
2021/08/02 06:18:06;;;;;;;1.13;1.07;;;16.60;99.90;;;;;;6243309;28;20711;-71
2021/08/02 06:21:09;;;;;;;1.87;1.27;;;16.60;99.90;;;;;;6243604;28;20231;-70
2021/08/02 06:24:11;;;;;;;1.73;1.27;;;16.70;99.90;;;;;;6245012;28;20535;-70
2021/08/02 06:27:14;;;;;;;0.87;0.87;;;16.70;99.90;;;;;;6244555;28;20215;-70
2021/08/02 06:30:18;;;;;;;1.30;1.20;;;16.70;99.90;;;;;;6244676;28;20500;-68
2021/08/02 06:33:23;;;;;;;1.50;1.20;;;16.80;99.90;;;;;;6260170;28;20188;-69
2021/08/02 06:36:25;;;;;;;1.20;1.10;;;16.90;99.90;;;;;;6247442;28;20216;-71
2021/08/02 06:39:27;;;;;;;1.40;1.30;;;17.10;99.90;;;;;;6247800;28;20207;-70
2021/08/02 06:42:30;;;;;;;1.57;1.47;;;17.20;99.90;;;;;;6249064;28;20208;-69
2021/08/02 06:45:32;;;;;;;1.10;1.00;;;17.30;99.90;;;;;;6264426;28;20243;-70
2021/08/02 06:48:36;;;;;;;1.30;1.10;;;17.40;99.90;;;;;;6248696;28;20199;-72
2021/08/02 06:51:39;;;;;;;1.90;1.23;;;17.50;99.90;;;;;;6249140;28;20561;-68
2021/08/02 06:54:41;;;;;;;3.40;1.27;;;17.60;99.90;;;;;;6248966;28;20207;-69
2021/08/02 06:57:44;;;;;;;2.00;1.03;;;17.70;99.90;;;;;;6249003;28;20214;-69
2021/08/02 07:00:47;;;;;;;2.10;1.17;;;17.80;99.90;;;;;;6248560;28;20272;-69
2021/08/02 07:03:49;;;;;;;1.00;1.00;;;17.90;99.90;;;;;;6246619;28;20707;-69
2021/08/02 07:06:52;;;;;;;1.80;1.30;;;18.10;99.90;;;;;;6248724;28;20176;-69
2021/08/02 07:09:54;;;;;;;1.77;1.20;;;18.40;99.90;;;;;;6248281;28;20713;-70
2021/08/02 07:12:57;;;;;;;4.17;1.23;;;18.50;99.90;;;;;;6263507;28;20202;-70
2021/08/02 07:16:00;;;;;;;1.53;1.27;;;18.60;99.90;;;;;;6263505;28;20259;-69
2021/08/02 07:19:02;;;;;;;2.50;1.50;;;18.70;99.90;;;;;;6246550;28;20239;-70
2021/08/02 07:22:06;;;;;;;1.50;1.10;;;18.70;99.90;;;;;;6246731;28;20191;-70
2021/08/02 07:25:09;;;;;;;2.73;1.00;;;18.70;99.90;;;;;;6246782;28;20235;-68
2021/08/02 07:28:11;;;;;;;2.93;1.10;;;18.80;99.90;;;;;;6247786;28;20601;-70
2021/08/02 07:31:15;;;;;;;1.00;0.90;;;18.90;99.90;;;;;;6262985;28;20188;-69
2021/08/02 07:34:17;;;;;;;2.37;0.87;;;18.90;99.90;;;;;;6247412;28;20196;-68
2021/08/02 07:37:20;;;;;;;1.10;1.00;;;18.90;99.90;;;;;;6262824;28;20211;-70
2021/08/02 07:40:22;;;;;;;1.57;1.20;;;19.00;99.90;;;;;;6238241;28;20200;-70
2021/08/02 07:43:25;;;;;;;1.67;0.80;;;19.30;99.90;;;;;;6239214;28;20207;-70
2021/08/02 07:46:27;;;;;;;1.00;0.93;;;19.60;99.90;;;;;;6247116;28;20635;-69
2021/08/02 07:49:30;;;;;;;0.87;0.80;;;20.00;99.90;;;;;;6246189;28;20296;-70
2021/08/02 07:52:33;;;;;;;1.10;1.00;;;20.30;99.90;;;;;;6245751;28;20189;-70
2021/08/02 07:55:37;;;;;;;1.13;1.03;;;20.50;99.90;;;;;;6262415;28;20207;-70
2021/08/02 07:58:39;;;;;;;1.10;0.90;;;20.50;99.90;;;;;;6262731;28;20576;-70
2021/08/02 08:01:42;;;;;;;0.90;0.80;;;20.50;99.90;;;;;;6262656;28;20206;-70
2021/08/02 08:04:47;;;;;;;1.10;1.00;;;20.30;99.90;;;;;;6245819;28;20230;-70
2021/08/02 08:07:52;;;;;;;1.07;0.70;;;20.20;99.90;;;;;;6245655;28;20576;-70
2021/08/02 08:10:54;;;;;;;1.00;0.90;;;20.20;99.90;;;;;;6245739;28;20570;-70
2021/08/02 08:13:56;;;;;;;1.00;0.80;;;20.20;99.90;;;;;;6245261;28;20228;-70
2021/08/02 08:16:59;;;;;;;1.43;0.80;;;20.20;99.90;;;;;;6245248;28;20719;-71
2021/08/02 08:20:03;;;;;;;0.80;0.80;;;20.10;99.90;;;;;;6245609;28;20661;-70
2021/08/02 08:23:05;;;;;;;0.80;0.80;;;20.20;99.90;;;;;;6246572;28;20195;-69
2021/08/02 08:26:11;;;;;;;0.80;0.77;;;20.30;99.90;;;;;;6245461;28;20612;-70
2021/08/02 08:29:13;;;;;;;2.17;0.83;;;20.30;99.90;;;;;;6246292;28;20204;-70
2021/08/02 08:32:16;;;;;;;1.33;0.83;;;20.60;99.90;;;;;;6244706;28;20200;-69
2021/08/02 08:35:18;;;;;;;1.20;1.00;;;20.70;99.90;;;;;;6261310;28;20250;-69
2021/08/02 08:38:21;;;;;;;0.77;0.70;;;21.20;99.90;;;;;;6246335;28;20211;-70
2021/08/02 08:41:23;;;;;;;1.07;0.80;;;21.30;99.90;;;;;;6244809;28;20203;-69
2021/08/02 08:44:27;;;;;;;1.00;0.80;;;21.10;99.90;;;;;;6246014;28;20582;-69
2021/08/02 08:47:32;;;;;;;1.23;0.90;;;20.90;99.90;;;;;;6244590;28;20345;-68
2021/08/02 08:50:38;;;;;;;1.97;1.00;;;20.60;99.90;;;;;;6245965;28;20187;-71
2021/08/02 08:53:45;;;;;;;1.03;0.70;;;20.50;99.90;;;;;;6245947;28;20181;-69
2021/08/02 08:56:47;;;;;;;1.43;0.80;;;20.40;99.90;;;;;;6245103;28;20192;-71
2021/08/02 08:59:53;;;;;;;1.63;0.87;;;20.30;99.90;;;;;;6244469;28;20199;-70
2021/08/02 09:02:56;;;;;;;1.13;0.90;;;20.20;99.90;;;;;;6244022;28;20277;-69
2021/08/02 09:06:06;;;;;;;0.90;0.90;;;20.20;99.90;;;;;;6244101;28;20353;-70
2021/08/02 09:09:09;;;;;;;0.83;0.73;;;20.30;99.90;;;;;;6244261;28;20188;-70
2021/08/02 09:12:16;;;;;;;2.83;0.90;;;20.40;99.90;;;;;;6244209;28;20196;-70
2021/08/02 09:15:40;;;;;;;2.33;1.10;;;20.50;99.90;;;;;;6260332;28;20703;-69
2021/08/02 09:19:08;;;;;;;1.67;1.03;;;20.50;99.90;;;;;;6242615;28;20603;-69
2021/08/02 09:22:11;;;;;;;1.10;1.00;;;20.90;99.90;;;;;;6260762;28;20196;-71
2021/08/02 09:25:22;;;;;;;0.93;0.80;;;21.50;99.90;;;;;;6243972;28;20675;-69
2021/08/02 09:28:24;;;;;;;1.30;0.90;;;22.20;99.40;;;;;;6243718;28;20643;-68
2021/08/02 09:31:38;;;;;;;2.77;0.70;;;22.90;98.70;;;;;;6243859;28;20194;-68
2021/08/02 09:34:47;;;;;;;1.50;1.17;;;23.40;96.40;;;;;;6243912;28;20219;-70
2021/08/02 09:37:54;;;;;;;1.83;0.90;;;23.80;95.60;;;;;;6245415;28;20196;-73
2021/08/02 09:40:57;;;;;;;1.97;1.10;;;24.40;95.90;;;;;;6245994;28;20195;-70
2021/08/02 09:44:00;;;;;;;1.33;1.00;;;24.60;92.10;;;;;;6243900;28;20260;-69
2021/08/02 09:47:07;;;;;;;0.93;0.90;;;24.60;91.90;;;;;;6246092;28;20184;-70
2021/08/02 09:50:09;;;;;;;1.97;1.10;;;24.40;90.80;;;;;;6243675;28;20200;-71
2021/08/02 09:53:20;;;;;;;1.50;0.90;;;24.20;91.00;;;;;;6243523;28;20189;-70
2021/08/02 09:56:24;;;;;;;1.90;1.40;;;24.20;92.20;;;;;;6244901;28;20192;-69
2021/08/02 09:59:43;;;;;;;1.20;1.10;;;24.20;91.70;;;;;;6244990;28;20184;-69
2021/08/02 10:02:47;;;;;;;1.00;0.90;;;24.00;89.50;;;;;;6259653;28;20250;-69
2021/08/02 10:05:51;;;;;;;1.10;1.00;;;24.00;90.30;;;;;;6259865;28;20227;-70
2021/08/02 10:09:10;;;;;;;1.60;1.17;;;24.00;90.90;;;;;;6246427;28;20597;-69
2021/08/02 10:12:12;;;;;;;2.13;1.30;;;24.00;92.20;;;;;;6247927;28;20274;-71
2021/08/02 10:15:18;;;;;;;2.83;1.50;;;24.00;91.60;;;;;;6264255;28;20251;-69
2021/08/02 10:18:21;;;;;;;1.90;1.00;;;24.20;91.90;;;;;;6247943;28;20921;-70
2021/08/02 10:21:43;;;;;;;2.00;1.20;;;24.70;91.80;;;;;;6247900;28;20222;-69
2021/08/02 10:24:52;;;;;;;1.30;1.20;;;25.00;88.40;;;;;;6249146;28;20211;-69
2021/08/02 10:28:14;;;;;;;1.30;1.20;;;25.00;89.90;;;;;;6247684;28;20195;-69
2021/08/02 10:31:17;;;;;;;1.40;1.30;;;25.10;85.00;;;;;;6249180;28;20180;-69
2021/08/02 10:34:35;;;;;;;1.50;1.10;;;25.50;84.20;;;;;;6248921;28;20271;-71
2021/08/02 10:37:38;;;;;;;1.60;1.30;;;25.70;80.90;;;;;;6247726;28;20294;-70
2021/08/02 10:40:57;;;;;;;3.83;1.50;;;25.50;79.50;;;;;;6248767;28;20196;-71
2021/08/02 10:44:13;;;;;;;1.77;1.20;;;25.20;81.10;;;;;;6247434;28;20219;-72
2021/08/02 10:47:15;;;;;;;1.40;1.30;;;25.10;83.40;;;;;;6248840;28;20572;-71
2021/08/02 10:50:44;;;;;;;1.83;1.33;;;24.90;81.50;;;;;;6247323;28;20203;-70
2021/08/02 10:53:57;;;;;;;2.27;1.30;;;24.90;83.60;;;;;;6245671;28;20235;-70
2021/08/02 10:57:13;;;;;;;2.17;1.30;;;24.90;81.50;;;;;;6247173;28;20196;-72
2021/08/02 11:00:21;;;;;;;1.20;1.10;;;24.80;80.80;;;;;;6247069;28;20679;-69
2021/08/02 11:03:36;;;;;;;1.85;1.20;;;25.10;84.00;;;;;;6247239;28;20189;-69
2021/08/02 11:06:39;;;;;;;1.23;0.98;;;25.50;82.70;;;;;;6248380;28;20188;-69
2021/08/02 11:09:47;;;;;;;3.88;1.50;;;26.00;78.20;;;;;;6263416;28;20270;-70
2021/08/02 11:12:50;;;;;;;1.92;1.25;;;26.60;78.40;;;;;;6246822;28;20531;-69
2021/08/02 11:15:54;;;;;;;1.48;1.30;;;26.80;72.80;;;;;;6246725;28;20232;-72
2021/08/02 11:18:56;;;;;;;2.30;1.33;;;27.20;73.70;;;;;;6248148;28;20318;-69
2021/08/02 11:21:59;;;;;;;2.03;0.93;;;27.40;69.80;;;;;;6247490;28;20243;-69
2021/08/02 11:25:01;;;;;;;1.30;1.20;;;27.80;70.30;;;;;;6247490;28;20231;-70
2021/08/02 11:28:04;;;;;;;2.10;1.17;;;28.40;69.90;;;;;;6246594;28;20192;-70
2021/08/02 11:31:09;;;;;;;0.98;0.90;;;28.70;64.30;;;;;;6248162;28;20194;-68
2021/08/02 11:34:21;;;;;;;1.20;1.10;;;28.90;63.00;;;;;;6247641;28;20206;-69
2021/08/02 11:37:25;;;;;;;1.48;1.08;;;29.00;64.00;;;;;;6247557;28;20200;-67
2021/08/02 11:40:34;;;;;;;1.35;0.95;;;28.70;58.10;;;;;;6247314;28;20298;-69
2021/08/02 11:43:44;;;;;;;1.33;1.00;;;28.70;60.50;;;;;;6247447;28;20191;-69
2021/08/02 11:46:48;;;;;;;1.00;0.90;;;29.20;62.40;;;;;;6246947;28;20184;-69
2021/08/02 11:49:53;;;;;;;0.80;0.80;;;29.60;59.40;;;;;;6247206;28;20265;-70
2021/08/02 11:53:04;;;;;;;0.95;0.90;;;29.80;56.80;;;;;;6247365;28;20265;-69
2021/08/02 11:56:11;;;;;;;0.90;0.90;;;29.90;54.30;;;;;;6246246;28;20655;-69
2021/08/02 11:59:31;;;;;;;1.85;0.98;;;29.90;55.50;;;;;;6247174;28;20197;-70
2021/08/02 12:02:40;;;;;;;3.13;1.20;;;30.20;56.40;;;;;;6245826;28;20223;-70
2021/08/02 12:05:43;;;;;;;3.05;0.98;;;30.20;55.00;;;;;;6246819;28;20219;-68
2021/08/02 12:08:53;;;;;;;1.35;0.98;;;30.00;54.70;;;;;;6246879;28;20192;-71
2021/08/02 12:11:57;;;;;;;1.30;0.63;;;30.10;54.50;;;;;;6245818;28;20200;-69
2021/08/02 12:15:05;;;;;;;1.42;0.88;;;30.50;53.60;;;;;;6246370;28;20707;-70
2021/08/02 12:18:07;;;;;;;0.73;0.73;;;30.60;54.00;;;;;;6246523;28;20196;-69
2021/08/02 12:21:24;;;;;;;1.10;0.80;;;30.70;53.80;;;;;;6246861;28;20310;-71
2021/08/02 12:24:27;;;;;;;1.17;0.82;;;30.80;52.50;;;;;;6244773;28;20790;-69
2021/08/02 12:27:29;;;;;;;2.10;0.88;;;30.90;52.80;;;;;;6246520;28;20188;-69
2021/08/02 12:30:32;;;;;;;0.70;0.70;;;30.80;50.70;;;;;;6247769;28;20206;-69
2021/08/02 12:33:34;;;;;;;2.10;1.02;;;30.90;50.60;;;;;;6245199;28;20737;-70
2021/08/02 12:36:37;;;;;;;0.88;0.88;;;30.70;52.00;;;;;;6244886;28;20214;-68
2021/08/02 12:39:39;;;;;;;0.88;0.80;;;30.20;50.40;;;;;;6246140;28;20330;-67
2021/08/02 12:42:47;;;;;;;0.93;0.90;;;29.30;49.70;;;;;;6244730;28;20198;-69
2021/08/02 12:45:49;;;;;;;0.85;0.85;;;29.00;51.30;;;;;;6244775;28;20203;-68
2021/08/02 12:48:52;;;;;;;1.15;0.95;;;29.60;53.50;;;;;;6244978;28;20790;-68
2021/08/02 12:51:54;;;;;;;0.95;0.75;;;30.00;51.30;;;;;;6246527;28;20196;-71
2021/08/02 12:54:59;;;;;;;1.48;0.95;;;30.50;50.90;;;;;;6244644;28;20195;-68
2021/08/02 12:58:02;;;;;;;1.35;1.05;;;30.90;49.20;;;;;;6244345;28;20238;-69
2021/08/02 13:01:06;;;;;;;1.10;0.85;;;31.10;50.20;;;;;;6245571;28;20234;-68
2021/08/02 13:04:09;;;;;;;1.17;0.88;;;31.40;49.80;;;;;;6260682;28;20269;-68
2021/08/02 13:07:11;;;;;;;2.17;0.57;;;31.60;48.90;;;;;;6245504;28;20594;-69
2021/08/02 13:10:13;;;;;;;1.10;0.70;;;31.80;48.00;;;;;;6244170;28;20188;-69
2021/08/02 13:13:15;;;;;;;0.80;0.80;;;31.50;46.60;;;;;;6244121;28;20533;-69
2021/08/02 13:16:23;;;;;;;3.50;0.95;;;31.50;46.50;;;;;;6243803;28;20224;-70
2021/08/02 13:19:26;;;;;;;1.00;0.80;;;31.90;49.80;;;;;;6243985;28;20211;-70
2021/08/02 13:22:40;;;;;;;2.38;0.80;;;32.50;46.80;;;;;;6244100;28;20581;-69
2021/08/02 13:29:03;;;;;;;1.80;0.73;;;33.10;44.10;;;;;;6245441;28;20227;-70
2021/08/02 13:32:08;;;;;;;0.52;0.52;;;32.50;44.30;;;;;;6243856;28;20669;-72
2021/08/02 13:35:10;;;;;;;1.27;0.82;;;32.70;45.80;;;;;;6244790;28;20727;-71
2021/08/02 13:38:13;;;;;;;1.23;0.85;;;32.60;43.10;;;;;;6244903;28;20246;-72
2021/08/02 13:41:15;;;;;;;0.90;0.70;;;32.70;44.10;;;;;;6245176;28;20569;-71
2021/08/02 13:44:17;;;;;;;1.33;0.68;;;33.20;43.90;;;;;;6263584;28;20222;-70
2021/08/02 13:47:21;;;;;;;1.00;0.70;;;33.60;43.30;;;;;;6248866;28;20286;-71
2021/08/02 13:50:24;;;;;;;1.23;0.70;;;33.90;43.30;;;;;;6248506;28;20656;-69
2021/08/02 13:53:26;;;;;;;2.35;0.95;;;34.20;41.70;;;;;;6248811;28;20649;-69
2021/08/02 13:56:28;;;;;;;1.33;0.77;;;34.40;43.30;;;;;;6248882;28;20207;-70
2021/08/02 13:59:31;;;;;;;1.95;0.80;;;35.00;42.20;;;;;;6248706;28;20227;-70
2021/08/02 14:02:35;;;;;;;0.60;0.60;;;35.50;39.30;;;;;;6248681;28;20333;-69
2021/08/02 14:05:39;;;;;;;1.80;0.70;;;35.90;37.90;;;;;;6248140;28;20215;-69
2021/08/02 14:08:57;;;;;;;0.70;0.63;;;35.90;37.90;;;;;;6249606;28;20199;-70
2021/08/02 14:12:10;;;;;;;1.13;0.90;;;36.10;37.20;;;;;;6249226;28;20192;-70
2021/08/02 14:15:17;;;;;;;0.60;0.60;;;36.20;39.10;;;;;;6249402;28;20246;-71
2021/08/02 14:18:35;;;;;;;1.08;0.77;;;36.50;40.10;;;;;;6249344;28;20187;-70
2021/08/02 14:21:40;;;;;;;1.10;0.90;;;37.00;39.40;;;;;;6248769;28;20200;-70
2021/08/02 14:24:44;;;;;;;1.25;0.80;;;37.40;37.90;;;;;;6248621;28;20558;-71
2021/08/02 14:27:47;;;;;;;1.00;0.90;;;37.60;37.20;;;;;;6250052;28;20184;-70
2021/08/02 14:30:54;;;;;;;1.95;0.90;;;38.00;37.20;;;;;;6248124;28;20200;-70
2021/08/02 14:34:04;;;;;;;1.90;0.90;;;38.20;37.90;;;;;;6247640;28;20192;-69
2021/08/02 14:37:08;;;;;;;4.28;0.80;;;37.90;35.80;;;;;;6248809;28;20222;-69
2021/08/02 14:40:12;;;;;;;1.25;0.73;;;37.90;37.70;;;;;;6247657;28;20196;-69
2021/08/02 14:43:19;;;;;;;0.82;0.70;;;38.10;35.20;;;;;;6248985;28;20193;-69
2021/08/02 14:46:24;;;;;;;0.60;0.60;;;38.40;34.50;;;;;;6264159;28;20216;-69
2021/08/02 14:49:30;;;;;;;2.15;0.82;;;38.40;33.90;;;;;;6247134;28;20192;-67
2021/08/02 14:52:35;;;;;;;1.60;0.80;;;38.60;34.60;;;;;;6248648;28;20736;-70
2021/08/02 14:55:43;;;;;;;0.70;0.50;;;38.70;35.40;;;;;;6247266;28;20184;-69
2021/08/02 14:58:46;;;;;;;1.05;0.70;;;38.50;33.90;;;;;;6263889;28;20188;-69
2021/08/02 15:01:51;;;;;;;0.98;0.70;;;38.70;34.80;;;;;;6247189;28;20672;-70
2021/08/02 15:04:58;;;;;;;0.88;0.88;;;38.90;33.50;;;;;;6250577;28;20300;-71
2021/08/02 15:08:02;;;;;;;2.50;0.90;;;39.10;33.30;;;;;;6250652;28;20204;-70
2021/08/02 15:11:07;;;;;;;1.25;0.80;;;39.30;32.70;;;;;;6252044;28;20279;-69
2021/08/02 15:14:10;;;;;;;1.48;0.70;;;39.30;33.70;;;;;;6251606;28;20228;-68
2021/08/02 15:17:14;;;;;;;0.80;0.80;;;39.50;33.30;;;;;;6250587;28;20203;-68
2021/08/02 15:20:24;;;;;;;1.13;0.80;;;39.20;31.90;;;;;;6250380;28;20606;-72
2021/08/02 15:23:38;;;;;;;1.10;0.80;;;38.90;32.00;;;;;;6251273;28;20262;-69
2021/08/02 15:26:43;;;;;;;1.25;0.77;;;38.90;34.00;;;;;;6252622;28;20192;-70
2021/08/02 15:29:57;;;;;;;0.63;0.63;;;38.90;34.70;;;;;;6252480;28;20189;-68
2021/08/02 15:33:01;;;;;;;0.85;0.80;;;38.50;32.40;;;;;;6252007;28;20714;-69
2021/08/02 15:36:03;;;;;;;2.42;0.82;;;38.50;32.90;;;;;;6252927;28;20554;-68
2021/08/02 15:39:11;;;;;;;1.60;0.80;;;38.70;33.40;;;;;;6253240;28;20211;-68
2021/08/02 15:42:19;;;;;;;0.70;0.70;;;38.50;31.40;;;;;;6251913;28;20200;-68
2021/08/02 15:45:27;;;;;;;0.90;0.80;;;38.10;32.20;;;;;;6252319;28;20687;-69
2021/08/02 15:48:30;;;;;;;2.83;0.80;;;38.20;32.70;;;;;;6250824;28;20497;-69
2021/08/02 15:51:33;;;;;;;2.05;0.60;;;38.50;32.00;;;;;;6251679;28;20184;-69
2021/08/02 15:54:41;;;;;;;0.63;0.60;;;38.70;32.50;;;;;;6250476;28;20303;-68
2021/08/02 15:57:45;;;;;;;1.90;0.70;;;38.80;31.60;;;;;;6251429;28;20181;-69
2021/08/02 16:00:58;;;;;;;2.80;1.52;;;38.70;32.40;;;;;;6250135;28;20254;-69
2021/08/02 16:04:08;;;;;;;6.30;4.97;;;38.60;33.20;;;;;;6250202;28;20291;-68
2021/08/02 16:07:11;;;;;;;4.25;3.85;;;38.40;33.30;;;;;;6249764;28;20204;-67
2021/08/02 16:10:17;;;;;;;2.45;1.50;;;37.40;34.80;;;;;;6267311;28;20199;-68
2021/08/02 16:13:23;;;;;;;3.05;1.30;;;36.20;35.70;;;;;;6252013;28;20203;-68